AirNav   TITAN Aviation Fuels
 
 849 users online  

WI92 Wag-Aero Airport
Lyons, Wisconsin, USA

GOING TO LYONS?


FAA INFORMATION EFFECTIVE 26 JANUARY 2023

Location

FAA Identifier: WI92
Lat/Long: 42-39-40.0590N 088-21-40.3390W
42-39.667650N 088-21.672317W
42.6611275,-88.3612053
(estimated)
Elevation: 905 ft. / 276 m (estimated)
Variation: 01W (1985)
From city: 1 mile NW of LYONS, WI
Time zone: UTC -6 (UTC -5 during Daylight Saving Time)
Zip code: 53105

Airport Operations

Airport use: Private use. Permission required prior to landing
Activation date: 06/1970
Control tower: no
ARTCC: CHICAGO CENTER
FSS: GREEN BAY FLIGHT SERVICE STATION
Attendance: UNATNDD
Wind indicator: yes
Segmented circle: no

Airport Communications

WX AWOS-3 at BUU (3 nm NE): 125.275 (262-757-0907)
WX AWOS-3PT at 57C (8 nm N): 118.125 (262-642-1845)
WX ASOS at ENW (20 nm E): PHONE 262-652-7730

Nearby radio navigation aids

VOR radial/distance  VOR name  Freq  Var
BAEr185/27.6BADGER VOR/DME116.4002E
OBKr328/32.0NORTHBROOK VOR/DME113.0002W
JVLr076/33.4JANESVILLE VOR/DME114.3003E

 
NDB name  Hdg/Dist  Freq  Var  ID
ROCK RIVER154/34.737101WRYV .-. -.-- ...-

Airport Services

Runway Information

Runway NE/SW

Dimensions: 2600 x 70 ft. / 792 x 21 m
Surface: turf
RUNWAY NE  RUNWAY SW
Traffic pattern: leftleft

Runway N/S

Dimensions: 2100 x 50 ft. / 640 x 15 m
Surface: turf
RUNWAY N  RUNWAY S
Traffic pattern: leftleft
Obstructions: nonetrees

Airport Ownership and Management from official FAA records

Ownership: Privately-owned
Owner: SUNSET INVESTMENTS LLC
W1285 SPRING PRAIRIE RD.
BURLINGTON, WI 53105
Phone 262-763-1654
Manager: KENNETH ESSMAN
W1285 SPRING PRAIRIE RD
BURLINGTON, WI 53105
Phone 262-763-1654
ADDITIONAL PHONE NUMBER 262-716-9039.

Airport Operational Statistics

Aircraft based on the field: 18
Single engine airplanes: 16
Multi engine airplanes: 2
    

Additional Remarks

BLDG EAST.
FOR CD CTC CHICAGO ARTCC AT 630-906-8921.

Instrument Procedures

There are no published instrument procedures at WI92.

Some nearby airports with instrument procedures:

KBUU - Burlington Municipal Airport (3 nm NE)
C02 - Grand Geneva Resort Airport (3 nm SW)
57C - East Troy Municipal Airport (8 nm N)
10C - Galt Field Airport (16 nm S)
KENW - Kenosha Regional Airport (20 nm E)
 
Loc | Ops | Rwys | IFR | FBO | Links
Com | Nav | Svcs | Stats | Notes
Area around WI92 (Wag-Aero Airport)
 
Road maps at: MapQuest Bing Google
 
Aerial photo
No photo
 
Sectional chart

 
Airport distance calculator
Flying to Wag-Aero Airport? Find the distance to fly.

From to WI92

Sunrise and sunset
Times for 27-Jan-2023
 Local
(UTC-6)
 Zulu
(UTC)
Morning civil twilight06:4312:43
Sunrise07:1413:14
Sunset16:5922:59
Evening civil twilight17:2923:29

Current date and time
Zulu (UTC)  27-Jan-2023 12:31:54
Local (UTC-6)  27-Jan-2023 06:31:54
 
METAR
KBUU 
3nm NE 
271215Z AUTO 17005KT 10SM CLR M11/M13 A2981 RMK AO2 T11101135 PWINO
K57C 
8nm N 
271215Z AUTO 18006KT 10SM CLR M11/M14 A2979 RMK AO2 T11151140
KENW 
19nm E 
271153Z AUTO 19009KT 10SM CLR M09/M13 A2984 RMK AO2 SLP117 70006 T10941133 11094 21117 56028
TAF
KENW 
19nm E 
271127Z 2712/2812 19012G18KT P6SM SCT150 OVC200 FM271600 20020G32KT 2SM -SN BR OVC025 FM271800 21020G31KT 1SM -SN BR OVC013 FM271900 22020G30KT 2SM -SN BR OVC012 FM272000 23018G28KT P6SM VCSH OVC011 FM280100 27016G25KT P6SM BKN040
KUES 
24nm NE 
271127Z 2712/2812 19012KT P6SM FEW040 SCT100 BKN150 FM271500 19017G29KT 2SM -SN BR OVC028 FM271700 21018G30KT 1 1/2SM -SN BR OVC015 FM272000 23017G26KT P6SM VCSH OVC010 FM272300 27016G27KT P6SM BKN020 FM281000 29006KT P6SM BKN080
NOTAMs
Click for the latest NOTAMs
NOTAMs are issued by the DoD/FAA and will open in a separate window not controlled by AirNav.

 

 
 

Would you like to see your business listed on this page?

 If your business provides an interesting product or service to pilots, flight crews, aircraft, or users of the Wag-Aero Airport, you should consider listing it here.  To start the listing process, click on the button below
 
Add a business
 

Other Pages about Wag-Aero Airport

Update a link
 
Copyright © AirNav, LLC. All rights reserved. Privacy Policy  Contact